sensor_id;sensor_type;location;lat;lon;timestamp;P1;durP1;ratioP1;P2;durP2;ratioP2
3278;SDS011;1651;50.940;6.888;2023-04-24T00:01:15;1.10;;;1.00;;
3278;SDS011;1651;50.940;6.888;2023-04-24T00:03:42;1.07;;;0.90;;
3278;SDS011;1651;50.940;6.888;2023-04-24T00:06:09;1.40;;;1.03;;
3278;SDS011;1651;50.940;6.888;2023-04-24T00:08:35;1.20;;;0.83;;
3278;SDS011;1651;50.940;6.888;2023-04-24T00:11:01;1.23;;;1.10;;
3278;SDS011;1651;50.940;6.888;2023-04-24T00:13:27;1.50;;;1.40;;
3278;SDS011;1651;50.940;6.888;2023-04-24T00:18:24;1.70;;;1.27;;
3278;SDS011;1651;50.940;6.888;2023-04-24T00:20:50;1.40;;;1.30;;
3278;SDS011;1651;50.940;6.888;2023-04-24T00:23:16;1.37;;;1.27;;
3278;SDS011;1651;50.940;6.888;2023-04-24T00:25:44;1.40;;;1.30;;
3278;SDS011;1651;50.940;6.888;2023-04-24T00:28:10;2.50;;;1.20;;
3278;SDS011;1651;50.940;6.888;2023-04-24T00:30:36;1.43;;;1.10;;
3278;SDS011;1651;50.940;6.888;2023-04-24T00:33:02;1.53;;;1.40;;
3278;SDS011;1651;50.940;6.888;2023-04-24T00:35:28;1.50;;;1.20;;
3278;SDS011;1651;50.940;6.888;2023-04-24T00:37:54;1.57;;;1.40;;
3278;SDS011;1651;50.940;6.888;2023-04-24T00:40:20;1.70;;;1.17;;
3278;SDS011;1651;50.940;6.888;2023-04-24T00:42:48;1.40;;;1.30;;
3278;SDS011;1651;50.940;6.888;2023-04-24T00:45:14;1.50;;;1.40;;
3278;SDS011;1651;50.940;6.888;2023-04-24T00:47:40;2.80;;;1.43;;
3278;SDS011;1651;50.940;6.888;2023-04-24T00:50:07;2.13;;;1.37;;
3278;SDS011;1651;50.940;6.888;2023-04-24T00:52:33;1.87;;;1.67;;
3278;SDS011;1651;50.940;6.888;2023-04-24T00:55:00;2.03;;;1.30;;
3278;SDS011;1651;50.940;6.888;2023-04-24T00:57:27;3.20;;;1.83;;
3278;SDS011;1651;50.940;6.888;2023-04-24T00:59:53;1.70;;;1.60;;
3278;SDS011;1651;50.940;6.888;2023-04-24T01:02:20;3.60;;;1.90;;
3278;SDS011;1651;50.940;6.888;2023-04-24T01:04:49;2.33;;;1.43;;
3278;SDS011;1651;50.940;6.888;2023-04-24T01:07:17;2.00;;;1.27;;
3278;SDS011;1651;50.940;6.888;2023-04-24T01:09:58;3.00;;;1.70;;
3278;SDS011;1651;50.940;6.888;2023-04-24T01:12:24;1.60;;;1.50;;
3278;SDS011;1651;50.940;6.888;2023-04-24T01:14:50;2.90;;;1.70;;
3278;SDS011;1651;50.940;6.888;2023-04-24T01:17:16;1.87;;;1.40;;
3278;SDS011;1651;50.940;6.888;2023-04-24T01:19:42;2.80;;;1.40;;
3278;SDS011;1651;50.940;6.888;2023-04-24T01:22:13;3.27;;;1.47;;
3278;SDS011;1651;50.940;6.888;2023-04-24T01:24:39;1.40;;;1.30;;
3278;SDS011;1651;50.940;6.888;2023-04-24T01:27:05;4.03;;;2.13;;
3278;SDS011;1651;50.940;6.888;2023-04-24T01:29:31;2.83;;;2.40;;
3278;SDS011;1651;50.940;6.888;2023-04-24T01:31:58;3.20;;;2.67;;
3278;SDS011;1651;50.940;6.888;2023-04-24T01:34:26;6.17;;;3.30;;
3278;SDS011;1651;50.940;6.888;2023-04-24T01:36:52;5.10;;;3.40;;
3278;SDS011;1651;50.940;6.888;2023-04-24T01:39:18;3.90;;;2.67;;
3278;SDS011;1651;50.940;6.888;2023-04-24T01:41:45;4.07;;;3.43;;
3278;SDS011;1651;50.940;6.888;2023-04-24T01:44:11;4.53;;;3.70;;
3278;SDS011;1651;50.940;6.888;2023-04-24T01:46:37;4.50;;;3.30;;
3278;SDS011;1651;50.940;6.888;2023-04-24T01:49:04;4.37;;;3.87;;
3278;SDS011;1651;50.940;6.888;2023-04-24T01:51:30;3.50;;;2.90;;
3278;SDS011;1651;50.940;6.888;2023-04-24T01:53:56;4.53;;;3.87;;
3278;SDS011;1651;50.940;6.888;2023-04-24T01:56:22;5.23;;;4.00;;
3278;SDS011;1651;50.940;6.888;2023-04-24T01:58:52;5.00;;;3.20;;
3278;SDS011;1651;50.940;6.888;2023-04-24T02:01:20;4.20;;;3.50;;
3278;SDS011;1651;50.940;6.888;2023-04-24T02:03:47;4.20;;;3.47;;
3278;SDS011;1651;50.940;6.888;2023-04-24T02:06:13;10.50;;;4.13;;
3278;SDS011;1651;50.940;6.888;2023-04-24T02:08:39;5.13;;;4.13;;
3278;SDS011;1651;50.940;6.888;2023-04-24T02:11:05;7.57;;;4.22;;
3278;SDS011;1651;50.940;6.888;2023-04-24T02:13:31;4.60;;;3.93;;
3278;SDS011;1651;50.940;6.888;2023-04-24T02:16:00;5.05;;;4.28;;
3278;SDS011;1651;50.940;6.888;2023-04-24T02:18:26;7.43;;;4.20;;
3278;SDS011;1651;50.940;6.888;2023-04-24T02:20:53;5.53;;;4.50;;
3278;SDS011;1651;50.940;6.888;2023-04-24T02:23:19;5.40;;;4.45;;
3278;SDS011;1651;50.940;6.888;2023-04-24T02:25:45;6.60;;;5.00;;
3278;SDS011;1651;50.940;6.888;2023-04-24T02:28:12;7.35;;;4.85;;
3278;SDS011;1651;50.940;6.888;2023-04-24T02:30:38;6.70;;;4.50;;
3278;SDS011;1651;50.940;6.888;2023-04-24T02:33:20;5.70;;;4.57;;
3278;SDS011;1651;50.940;6.888;2023-04-24T02:35:46;6.60;;;4.95;;
3278;SDS011;1651;50.940;6.888;2023-04-24T02:38:12;8.50;;;5.00;;
3278;SDS011;1651;50.940;6.888;2023-04-24T02:40:38;9.03;;;4.93;;
3278;SDS011;1651;50.940;6.888;2023-04-24T02:43:04;5.93;;;4.70;;
3278;SDS011;1651;50.940;6.888;2023-04-24T02:45:34;11.20;;;6.38;;
3278;SDS011;1651;50.940;6.888;2023-04-24T02:48:04;7.53;;;4.75;;
3278;SDS011;1651;50.940;6.888;2023-04-24T02:50:30;7.10;;;4.70;;
3278;SDS011;1651;50.940;6.888;2023-04-24T02:52:58;9.65;;;4.82;;
3278;SDS011;1651;50.940;6.888;2023-04-24T02:55:24;5.90;;;4.87;;
3278;SDS011;1651;50.940;6.888;2023-04-24T02:57:51;7.40;;;5.13;;
3278;SDS011;1651;50.940;6.888;2023-04-24T03:00:19;5.70;;;5.20;;
3278;SDS011;1651;50.940;6.888;2023-04-24T03:02:45;5.00;;;4.50;;
3278;SDS011;1651;50.940;6.888;2023-04-24T03:05:11;8.40;;;6.47;;
3278;SDS011;1651;50.940;6.888;2023-04-24T03:07:37;6.90;;;4.70;;
3278;SDS011;1651;50.940;6.888;2023-04-24T03:10:04;7.93;;;5.30;;
3278;SDS011;1651;50.940;6.888;2023-04-24T03:12:30;8.07;;;5.27;;
3278;SDS011;1651;50.940;6.888;2023-04-24T03:14:57;7.83;;;5.33;;
3278;SDS011;1651;50.940;6.888;2023-04-24T03:17:24;7.93;;;6.20;;
3278;SDS011;1651;50.940;6.888;2023-04-24T03:19:50;7.67;;;6.07;;
3278;SDS011;1651;50.940;6.888;2023-04-24T03:22:16;5.93;;;5.37;;
3278;SDS011;1651;50.940;6.888;2023-04-24T03:24:42;6.47;;;5.87;;
3278;SDS011;1651;50.940;6.888;2023-04-24T03:27:08;8.90;;;7.77;;
3278;SDS011;1651;50.940;6.888;2023-04-24T03:29:34;6.90;;;6.07;;
3278;SDS011;1651;50.940;6.888;2023-04-24T03:32:00;7.50;;;6.67;;
3278;SDS011;1651;50.940;6.888;2023-04-24T03:34:26;8.67;;;6.43;;
3278;SDS011;1651;50.940;6.888;2023-04-24T03:36:53;11.20;;;6.43;;
3278;SDS011;1651;50.940;6.888;2023-04-24T03:39:19;9.07;;;7.33;;
3278;SDS011;1651;50.940;6.888;2023-04-24T03:41:45;8.70;;;6.33;;
3278;SDS011;1651;50.940;6.888;2023-04-24T03:44:10;10.83;;;6.53;;
3278;SDS011;1651;50.940;6.888;2023-04-24T03:46:36;9.33;;;6.20;;
3278;SDS011;1651;50.940;6.888;2023-04-24T03:49:02;9.30;;;7.07;;
3278;SDS011;1651;50.940;6.888;2023-04-24T03:51:28;7.53;;;6.60;;
3278;SDS011;1651;50.940;6.888;2023-04-24T03:53:56;8.15;;;6.03;;
3278;SDS011;1651;50.940;6.888;2023-04-24T03:56:23;8.07;;;6.50;;
3278;SDS011;1651;50.940;6.888;2023-04-24T03:58:49;8.65;;;5.63;;
3278;SDS011;1651;50.940;6.888;2023-04-24T04:01:15;10.20;;;6.13;;
3278;SDS011;1651;50.940;6.888;2023-04-24T04:03:41;8.50;;;6.63;;
3278;SDS011;1651;50.940;6.888;2023-04-24T04:06:07;7.68;;;6.38;;
3278;SDS011;1651;50.940;6.888;2023-04-24T04:08:37;6.15;;;5.55;;
3278;SDS011;1651;50.940;6.888;2023-04-24T04:11:04;8.43;;;5.87;;
3278;SDS011;1651;50.940;6.888;2023-04-24T04:13:30;8.00;;;6.18;;
3278;SDS011;1651;50.940;6.888;2023-04-24T04:15:56;6.97;;;5.35;;
3278;SDS011;1651;50.940;6.888;2023-04-24T04:18:22;10.60;;;5.60;;
3278;SDS011;1651;50.940;6.888;2023-04-24T04:20:48;6.90;;;5.97;;
3278;SDS011;1651;50.940;6.888;2023-04-24T04:23:13;6.00;;;5.00;;
3278;SDS011;1651;50.940;6.888;2023-04-24T04:25:40;6.38;;;5.43;;
3278;SDS011;1651;50.940;6.888;2023-04-24T04:28:06;6.60;;;5.90;;
3278;SDS011;1651;50.940;6.888;2023-04-24T04:30:32;6.73;;;5.77;;
3278;SDS011;1651;50.940;6.888;2023-04-24T04:33:00;8.70;;;6.50;;
3278;SDS011;1651;50.940;6.888;2023-04-24T04:35:27;6.53;;;5.18;;
3278;SDS011;1651;50.940;6.888;2023-04-24T04:37:53;7.45;;;5.53;;
3278;SDS011;1651;50.940;6.888;2023-04-24T04:40:20;7.33;;;5.77;;
3278;SDS011;1651;50.940;6.888;2023-04-24T04:42:46;7.50;;;5.43;;
3278;SDS011;1651;50.940;6.888;2023-04-24T04:45:12;5.43;;;4.90;;
3278;SDS011;1651;50.940;6.888;2023-04-24T04:47:41;7.30;;;5.57;;
3278;SDS011;1651;50.940;6.888;2023-04-24T04:50:07;9.60;;;5.30;;
3278;SDS011;1651;50.940;6.888;2023-04-24T04:52:34;14.23;;;6.20;;
3278;SDS011;1651;50.940;6.888;2023-04-24T04:55:00;5.70;;;5.20;;
3278;SDS011;1651;50.940;6.888;2023-04-24T04:57:27;7.72;;;5.03;;
3278;SDS011;1651;50.940;6.888;2023-04-24T04:59:53;8.47;;;5.60;;
3278;SDS011;1651;50.940;6.888;2023-04-24T05:02:19;6.10;;;5.50;;
3278;SDS011;1651;50.940;6.888;2023-04-24T05:04:45;5.13;;;4.63;;
3278;SDS011;1651;50.940;6.888;2023-04-24T05:07:14;7.80;;;5.13;;
3278;SDS011;1651;50.940;6.888;2023-04-24T05:09:40;9.33;;;4.83;;
3278;SDS011;1651;50.940;6.888;2023-04-24T05:12:06;6.33;;;5.17;;
3278;SDS011;1651;50.940;6.888;2023-04-24T05:14:33;7.70;;;5.17;;
3278;SDS011;1651;50.940;6.888;2023-04-24T05:16:59;6.43;;;4.47;;
3278;SDS011;1651;50.940;6.888;2023-04-24T05:19:25;6.83;;;5.20;;
3278;SDS011;1651;50.940;6.888;2023-04-24T05:21:51;5.53;;;4.63;;
3278;SDS011;1651;50.940;6.888;2023-04-24T05:24:17;7.43;;;5.30;;
3278;SDS011;1651;50.940;6.888;2023-04-24T05:26:43;7.10;;;4.70;;
3278;SDS011;1651;50.940;6.888;2023-04-24T05:29:09;7.97;;;5.27;;
3278;SDS011;1651;50.940;6.888;2023-04-24T05:31:36;5.40;;;4.45;;
3278;SDS011;1651;50.940;6.888;2023-04-24T05:34:02;6.10;;;4.97;;
3278;SDS011;1651;50.940;6.888;2023-04-24T05:36:28;5.43;;;4.63;;
3278;SDS011;1651;50.940;6.888;2023-04-24T05:38:56;7.93;;;5.23;;
3278;SDS011;1651;50.940;6.888;2023-04-24T05:41:22;6.73;;;4.90;;
3278;SDS011;1651;50.940;6.888;2023-04-24T05:43:48;6.10;;;4.90;;
3278;SDS011;1651;50.940;6.888;2023-04-24T05:46:14;9.37;;;5.00;;
3278;SDS011;1651;50.940;6.888;2023-04-24T05:48:40;5.27;;;4.33;;
3278;SDS011;1651;50.940;6.888;2023-04-24T05:51:06;5.83;;;4.83;;
3278;SDS011;1651;50.940;6.888;2023-04-24T05:53:33;7.18;;;5.40;;
3278;SDS011;1651;50.940;6.888;2023-04-24T05:55:59;5.93;;;4.83;;
3278;SDS011;1651;50.940;6.888;2023-04-24T05:58:25;13.57;;;6.47;;
3278;SDS011;1651;50.940;6.888;2023-04-24T06:00:51;8.93;;;5.87;;
3278;SDS011;1651;50.940;6.888;2023-04-24T06:03:17;8.07;;;5.50;;
3278;SDS011;1651;50.940;6.888;2023-04-24T06:05:43;6.03;;;5.30;;
3278;SDS011;1651;50.940;6.888;2023-04-24T06:08:09;7.10;;;4.90;;
3278;SDS011;1651;50.940;6.888;2023-04-24T06:10:37;4.90;;;3.40;;
3278;SDS011;1651;50.940;6.888;2023-04-24T06:13:03;3.63;;;3.00;;
3278;SDS011;1651;50.940;6.888;2023-04-24T06:15:29;4.90;;;2.70;;
3278;SDS011;1651;50.940;6.888;2023-04-24T06:17:56;3.95;;;2.53;;
3278;SDS011;1651;50.940;6.888;2023-04-24T06:20:22;3.08;;;2.78;;
3278;SDS011;1651;50.940;6.888;2023-04-24T06:22:48;2.37;;;2.17;;
3278;SDS011;1651;50.940;6.888;2023-04-24T06:25:18;3.33;;;3.03;;
3278;SDS011;1651;50.940;6.888;2023-04-24T06:27:44;2.20;;;1.98;;
3278;SDS011;1651;50.940;6.888;2023-04-24T06:30:30;3.60;;;2.10;;
3278;SDS011;1651;50.940;6.888;2023-04-24T06:33:00;2.58;;;2.03;;
3278;SDS011;1651;50.940;6.888;2023-04-24T06:35:28;4.25;;;2.30;;
3278;SDS011;1651;50.940;6.888;2023-04-24T06:37:54;2.10;;;1.80;;
3278;SDS011;1651;50.940;6.888;2023-04-24T06:40:21;2.78;;;2.10;;
3278;SDS011;1651;50.940;6.888;2023-04-24T06:42:49;4.57;;;2.63;;
3278;SDS011;1651;50.940;6.888;2023-04-24T06:45:18;2.80;;;1.85;;
3278;SDS011;1651;50.940;6.888;2023-04-24T06:47:44;2.08;;;1.88;;
3278;SDS011;1651;50.940;6.888;2023-04-24T06:50:10;6.17;;;3.00;;
3278;SDS011;1651;50.940;6.888;2023-04-24T06:52:36;3.00;;;2.53;;
3278;SDS011;1651;50.940;6.888;2023-04-24T06:55:02;2.90;;;1.80;;
3278;SDS011;1651;50.940;6.888;2023-04-24T06:57:29;2.25;;;2.05;;
3278;SDS011;1651;50.940;6.888;2023-04-24T06:59:55;2.63;;;1.80;;
3278;SDS011;1651;50.940;6.888;2023-04-24T07:02:22;3.03;;;2.40;;
3278;SDS011;1651;50.940;6.888;2023-04-24T07:04:48;2.22;;;2.00;;
3278;SDS011;1651;50.940;6.888;2023-04-24T07:07:14;2.35;;;1.92;;
3278;SDS011;1651;50.940;6.888;2023-04-24T07:09:41;2.78;;;2.40;;
3278;SDS011;1651;50.940;6.888;2023-04-24T07:12:07;2.43;;;2.23;;
3278;SDS011;1651;50.940;6.888;2023-04-24T07:14:35;3.33;;;2.90;;
3278;SDS011;1651;50.940;6.888;2023-04-24T07:17:03;3.45;;;2.33;;
3278;SDS011;1651;50.940;6.888;2023-04-24T07:19:29;2.38;;;2.15;;
3278;SDS011;1651;50.940;6.888;2023-04-24T07:21:55;4.40;;;2.72;;
3278;SDS011;1651;50.940;6.888;2023-04-24T07:24:26;3.05;;;2.70;;
3278;SDS011;1651;50.940;6.888;2023-04-24T07:26:52;5.15;;;3.20;;
3278;SDS011;1651;50.940;6.888;2023-04-24T07:29:18;3.97;;;3.35;;
3278;SDS011;1651;50.940;6.888;2023-04-24T07:31:45;5.00;;;2.72;;
3278;SDS011;1651;50.940;6.888;2023-04-24T07:34:11;3.20;;;2.60;;
3278;SDS011;1651;50.940;6.888;2023-04-24T07:36:37;2.70;;;2.50;;
3278;SDS011;1651;50.940;6.888;2023-04-24T07:39:07;2.45;;;2.25;;
3278;SDS011;1651;50.940;6.888;2023-04-24T07:41:34;2.05;;;1.92;;
3278;SDS011;1651;50.940;6.888;2023-04-24T07:44:01;2.63;;;2.40;;
3278;SDS011;1651;50.940;6.888;2023-04-24T07:46:27;2.65;;;1.58;;
3278;SDS011;1651;50.940;6.888;2023-04-24T07:48:54;3.85;;;1.80;;
3278;SDS011;1651;50.940;6.888;2023-04-24T07:51:21;1.85;;;1.70;;
3278;SDS011;1651;50.940;6.888;2023-04-24T07:53:47;2.30;;;1.60;;
3278;SDS011;1651;50.940;6.888;2023-04-24T07:56:13;2.80;;;1.60;;
3278;SDS011;1651;50.940;6.888;2023-04-24T07:58:39;3.13;;;1.77;;
3278;SDS011;1651;50.940;6.888;2023-04-24T08:01:06;3.30;;;1.40;;
3278;SDS011;1651;50.940;6.888;2023-04-24T08:03:32;2.28;;;1.30;;
3278;SDS011;1651;50.940;6.888;2023-04-24T08:05:58;1.85;;;1.42;;
3278;SDS011;1651;50.940;6.888;2023-04-24T08:08:25;1.95;;;1.75;;
3278;SDS011;1651;50.940;6.888;2023-04-24T08:10:51;2.70;;;1.65;;
3278;SDS011;1651;50.940;6.888;2023-04-24T08:13:17;2.00;;;1.57;;
3278;SDS011;1651;50.940;6.888;2023-04-24T08:15:43;4.57;;;2.17;;
3278;SDS011;1651;50.940;6.888;2023-04-24T08:18:09;3.13;;;1.30;;
3278;SDS011;1651;50.940;6.888;2023-04-24T08:20:36;2.17;;;1.45;;
3278;SDS011;1651;50.940;6.888;2023-04-24T08:23:02;1.88;;;1.45;;
3278;SDS011;1651;50.940;6.888;2023-04-24T08:25:28;3.33;;;1.67;;
3278;SDS011;1651;50.940;6.888;2023-04-24T08:27:55;5.35;;;1.40;;
3278;SDS011;1651;50.940;6.888;2023-04-24T08:30:21;1.73;;;1.50;;
3278;SDS011;1651;50.940;6.888;2023-04-24T08:32:47;2.95;;;1.83;;
3278;SDS011;1651;50.940;6.888;2023-04-24T08:35:13;1.53;;;1.43;;
3278;SDS011;1651;50.940;6.888;2023-04-24T08:37:39;1.63;;;1.40;;
3278;SDS011;1651;50.940;6.888;2023-04-24T08:40:06;2.35;;;1.52;;
3278;SDS011;1651;50.940;6.888;2023-04-24T08:42:36;2.15;;;1.67;;
3278;SDS011;1651;50.940;6.888;2023-04-24T08:45:03;2.70;;;1.70;;
3278;SDS011;1651;50.940;6.888;2023-04-24T08:47:29;4.72;;;1.98;;
3278;SDS011;1651;50.940;6.888;2023-04-24T08:49:56;2.88;;;2.13;;
3278;SDS011;1651;50.940;6.888;2023-04-24T08:52:23;3.45;;;2.15;;
3278;SDS011;1651;50.940;6.888;2023-04-24T08:54:53;3.65;;;2.50;;
3278;SDS011;1651;50.940;6.888;2023-04-24T08:57:19;3.55;;;2.20;;
3278;SDS011;1651;50.940;6.888;2023-04-24T08:59:45;5.50;;;2.40;;
3278;SDS011;1651;50.940;6.888;2023-04-24T09:02:13;3.78;;;2.80;;
3278;SDS011;1651;50.940;6.888;2023-04-24T09:04:40;3.40;;;2.83;;
3278;SDS011;1651;50.940;6.888;2023-04-24T09:07:06;4.70;;;2.97;;
3278;SDS011;1651;50.940;6.888;2023-04-24T09:09:34;4.10;;;3.40;;
3278;SDS011;1651;50.940;6.888;2023-04-24T09:12:01;7.30;;;3.78;;
3278;SDS011;1651;50.940;6.888;2023-04-24T09:14:28;4.40;;;3.88;;
3278;SDS011;1651;50.940;6.888;2023-04-24T09:16:57;4.00;;;3.60;;
3278;SDS011;1651;50.940;6.888;2023-04-24T09:19:23;6.10;;;4.60;;
3278;SDS011;1651;50.940;6.888;2023-04-24T09:21:49;7.60;;;4.60;;
3278;SDS011;1651;50.940;6.888;2023-04-24T09:24:19;8.02;;;5.10;;
3278;SDS011;1651;50.940;6.888;2023-04-24T09:26:59;8.30;;;6.40;;
3278;SDS011;1651;50.940;6.888;2023-04-24T09:29:26;7.53;;;4.60;;
3278;SDS011;1651;50.940;6.888;2023-04-24T09:31:52;6.68;;;4.75;;
3278;SDS011;1651;50.940;6.888;2023-04-24T09:34:22;7.70;;;5.82;;
3278;SDS011;1651;50.940;6.888;2023-04-24T09:36:48;6.75;;;5.85;;
3278;SDS011;1651;50.940;6.888;2023-04-24T09:39:15;10.75;;;5.82;;
3278;SDS011;1651;50.940;6.888;2023-04-24T09:41:45;8.57;;;5.55;;
3278;SDS011;1651;50.940;6.888;2023-04-24T09:44:21;9.20;;;6.40;;
3278;SDS011;1651;50.940;6.888;2023-04-24T09:46:54;8.10;;;6.32;;
3278;SDS011;1651;50.940;6.888;2023-04-24T09:49:27;9.73;;;5.47;;
3278;SDS011;1651;50.940;6.888;2023-04-24T09:52:06;6.55;;;5.68;;
3278;SDS011;1651;50.940;6.888;2023-04-24T09:54:32;11.63;;;6.88;;
3278;SDS011;1651;50.940;6.888;2023-04-24T09:56:58;13.10;;;6.90;;
3278;SDS011;1651;50.940;6.888;2023-04-24T09:59:25;8.70;;;5.90;;
3278;SDS011;1651;50.940;6.888;2023-04-24T10:01:52;9.55;;;6.18;;
3278;SDS011;1651;50.940;6.888;2023-04-24T10:04:22;7.85;;;6.22;;
3278;SDS011;1651;50.940;6.888;2023-04-24T10:06:50;8.90;;;5.28;;
3278;SDS011;1651;50.940;6.888;2023-04-24T10:09:17;10.05;;;6.25;;
3278;SDS011;1651;50.940;6.888;2023-04-24T10:11:45;15.25;;;5.60;;
3278;SDS011;1651;50.940;6.888;2023-04-24T10:14:12;8.80;;;5.10;;
3278;SDS011;1651;50.940;6.888;2023-04-24T10:16:39;9.00;;;5.13;;
3278;SDS011;1651;50.940;6.888;2023-04-24T10:19:07;8.77;;;4.97;;
3278;SDS011;1651;50.940;6.888;2023-04-24T10:21:34;8.10;;;4.68;;
3278;SDS011;1651;50.940;6.888;2023-04-24T10:24:02;8.53;;;4.43;;
3278;SDS011;1651;50.940;6.888;2023-04-24T10:26:29;11.07;;;5.55;;
3278;SDS011;1651;50.940;6.888;2023-04-24T10:28:56;5.10;;;4.10;;
3278;SDS011;1651;50.940;6.888;2023-04-24T10:31:23;9.00;;;4.30;;
3278;SDS011;1651;50.940;6.888;2023-04-24T10:33:49;7.50;;;4.23;;
3278;SDS011;1651;50.940;6.888;2023-04-24T10:36:15;11.70;;;4.90;;
3278;SDS011;1651;50.940;6.888;2023-04-24T10:38:42;9.43;;;4.30;;
3278;SDS011;1651;50.940;6.888;2023-04-24T10:41:13;6.93;;;3.57;;
3278;SDS011;1651;50.940;6.888;2023-04-24T10:43:44;6.50;;;3.70;;
3278;SDS011;1651;50.940;6.888;2023-04-24T10:46:16;5.53;;;4.10;;
3278;SDS011;1651;50.940;6.888;2023-04-24T10:48:51;4.07;;;3.67;;
3278;SDS011;1651;50.940;6.888;2023-04-24T10:51:17;4.00;;;3.27;;
3278;SDS011;1651;50.940;6.888;2023-04-24T10:53:45;4.57;;;3.80;;
3278;SDS011;1651;50.940;6.888;2023-04-24T10:56:34;7.07;;;3.67;;
3278;SDS011;1651;50.940;6.888;2023-04-24T10:59:27;5.20;;;3.70;;
3278;SDS011;1651;50.940;6.888;2023-04-24T11:01:53;4.73;;;3.30;;
3278;SDS011;1651;50.940;6.888;2023-04-24T11:04:30;4.70;;;3.03;;
3278;SDS011;1651;50.940;6.888;2023-04-24T11:06:56;5.37;;;3.40;;
3278;SDS011;1651;50.940;6.888;2023-04-24T11:09:26;4.27;;;3.17;;
3278;SDS011;1651;50.940;6.888;2023-04-24T11:11:52;6.80;;;3.43;;
3278;SDS011;1651;50.940;6.888;2023-04-24T11:14:28;7.57;;;3.10;;
3278;SDS011;1651;50.940;6.888;2023-04-24T11:16:56;8.87;;;3.70;;
3278;SDS011;1651;50.940;6.888;2023-04-24T11:19:25;8.10;;;3.20;;
3278;SDS011;1651;50.940;6.888;2023-04-24T11:22:03;5.17;;;3.20;;
3278;SDS011;1651;50.940;6.888;2023-04-24T11:26:58;4.63;;;3.00;;
3278;SDS011;1651;50.940;6.888;2023-04-24T11:30:25;7.53;;;3.10;;
3278;SDS011;1651;50.940;6.888;2023-04-24T11:32:30;6.80;;;3.30;;
3278;SDS011;1651;50.940;6.888;2023-04-24T11:35:00;9.90;;;4.07;;
3278;SDS011;1651;50.940;6.888;2023-04-24T11:37:36;8.20;;;3.50;;
3278;SDS011;1651;50.940;6.888;2023-04-24T11:40:03;8.40;;;4.13;;
3278;SDS011;1651;50.940;6.888;2023-04-24T11:42:45;9.03;;;3.50;;
3278;SDS011;1651;50.940;6.888;2023-04-24T11:45:12;5.27;;;4.10;;
3278;SDS011;1651;50.940;6.888;2023-04-24T11:47:39;10.87;;;3.40;;
3278;SDS011;1651;50.940;6.888;2023-04-24T11:50:06;4.77;;;4.20;;
3278;SDS011;1651;50.940;6.888;2023-04-24T11:52:33;3.50;;;3.07;;
3278;SDS011;1651;50.940;6.888;2023-04-24T11:55:02;4.90;;;2.93;;
3278;SDS011;1651;50.940;6.888;2023-04-24T11:57:28;4.80;;;3.63;;
3278;SDS011;1651;50.940;6.888;2023-04-24T11:59:59;6.90;;;3.33;;
3278;SDS011;1651;50.940;6.888;2023-04-24T12:02:26;4.30;;;3.10;;
3278;SDS011;1651;50.940;6.888;2023-04-24T12:04:52;7.53;;;3.70;;
3278;SDS011;1651;50.940;6.888;2023-04-24T12:07:19;7.00;;;3.40;;
3278;SDS011;1651;50.940;6.888;2023-04-24T12:09:56;5.43;;;3.30;;
3278;SDS011;1651;50.940;6.888;2023-04-24T12:12:24;4.13;;;3.37;;
3278;SDS011;1651;50.940;6.888;2023-04-24T12:14:54;6.67;;;3.43;;
3278;SDS011;1651;50.940;6.888;2023-04-24T12:17:28;5.00;;;3.30;;
3278;SDS011;1651;50.940;6.888;2023-04-24T12:19:59;5.63;;;3.40;;
3278;SDS011;1651;50.940;6.888;2023-04-24T12:22:25;5.10;;;3.90;;
3278;SDS011;1651;50.940;6.888;2023-04-24T12:24:58;8.10;;;3.80;;
3278;SDS011;1651;50.940;6.888;2023-04-24T12:27:26;5.37;;;3.80;;
3278;SDS011;1651;50.940;6.888;2023-04-24T12:29:56;8.20;;;3.80;;
3278;SDS011;1651;50.940;6.888;2023-04-24T12:32:22;5.90;;;4.37;;
3278;SDS011;1651;50.940;6.888;2023-04-24T12:34:50;6.40;;;4.37;;
3278;SDS011;1651;50.940;6.888;2023-04-24T12:37:16;7.43;;;3.30;;
3278;SDS011;1651;50.940;6.888;2023-04-24T12:42:29;5.53;;;3.10;;
3278;SDS011;1651;50.940;6.888;2023-04-24T12:44:56;4.10;;;3.50;;
3278;SDS011;1651;50.940;6.888;2023-04-24T12:47:24;6.80;;;3.90;;
3278;SDS011;1651;50.940;6.888;2023-04-24T12:49:50;10.63;;;4.37;;
3278;SDS011;1651;50.940;6.888;2023-04-24T12:52:17;7.20;;;4.60;;
3278;SDS011;1651;50.940;6.888;2023-04-24T12:54:44;11.10;;;4.43;;
3278;SDS011;1651;50.940;6.888;2023-04-24T12:57:11;8.53;;;4.40;;
3278;SDS011;1651;50.940;6.888;2023-04-24T12:59:37;8.33;;;3.73;;
3278;SDS011;1651;50.940;6.888;2023-04-24T13:02:04;9.00;;;3.90;;
3278;SDS011;1651;50.940;6.888;2023-04-24T13:04:31;11.53;;;4.20;;
3278;SDS011;1651;50.940;6.888;2023-04-24T13:06:57;6.63;;;4.03;;
3278;SDS011;1651;50.940;6.888;2023-04-24T13:09:24;8.27;;;4.10;;
3278;SDS011;1651;50.940;6.888;2023-04-24T13:11:50;6.60;;;3.80;;
3278;SDS011;1651;50.940;6.888;2023-04-24T13:14:16;7.13;;;3.50;;
3278;SDS011;1651;50.940;6.888;2023-04-24T13:16:43;6.50;;;4.20;;
3278;SDS011;1651;50.940;6.888;2023-04-24T13:19:09;5.93;;;3.30;;
3278;SDS011;1651;50.940;6.888;2023-04-24T13:21:35;9.37;;;4.33;;
3278;SDS011;1651;50.940;6.888;2023-04-24T13:24:01;8.23;;;4.40;;
3278;SDS011;1651;50.940;6.888;2023-04-24T13:26:29;5.90;;;4.17;;
3278;SDS011;1651;50.940;6.888;2023-04-24T13:28:55;5.90;;;4.20;;
3278;SDS011;1651;50.940;6.888;2023-04-24T13:31:22;8.03;;;4.30;;
3278;SDS011;1651;50.940;6.888;2023-04-24T13:33:48;6.80;;;3.90;;
3278;SDS011;1651;50.940;6.888;2023-04-24T13:36:15;7.53;;;4.00;;
3278;SDS011;1651;50.940;6.888;2023-04-24T13:38:42;6.20;;;4.30;;
3278;SDS011;1651;50.940;6.888;2023-04-24T13:41:08;6.53;;;4.27;;
3278;SDS011;1651;50.940;6.888;2023-04-24T13:43:34;7.93;;;3.80;;
3278;SDS011;1651;50.940;6.888;2023-04-24T13:46:00;8.97;;;3.80;;
3278;SDS011;1651;50.940;6.888;2023-04-24T13:48:29;6.20;;;4.57;;
3278;SDS011;1651;50.940;6.888;2023-04-24T13:50:55;9.50;;;4.20;;
3278;SDS011;1651;50.940;6.888;2023-04-24T13:53:21;6.80;;;3.30;;
3278;SDS011;1651;50.940;6.888;2023-04-24T13:55:47;5.90;;;3.90;;
3278;SDS011;1651;50.940;6.888;2023-04-24T13:58:13;5.73;;;3.87;;
3278;SDS011;1651;50.940;6.888;2023-04-24T14:00:41;6.83;;;4.10;;
3278;SDS011;1651;50.940;6.888;2023-04-24T14:03:07;7.27;;;4.27;;
3278;SDS011;1651;50.940;6.888;2023-04-24T14:05:32;11.57;;;4.10;;
3278;SDS011;1651;50.940;6.888;2023-04-24T14:07:58;5.30;;;4.10;;
3278;SDS011;1651;50.940;6.888;2023-04-24T14:10:25;4.93;;;3.67;;
3278;SDS011;1651;50.940;6.888;2023-04-24T14:12:53;7.17;;;3.30;;
3278;SDS011;1651;50.940;6.888;2023-04-24T14:15:19;6.80;;;4.30;;
3278;SDS011;1651;50.940;6.888;2023-04-24T14:17:45;8.63;;;3.77;;
3278;SDS011;1651;50.940;6.888;2023-04-24T14:20:12;5.50;;;3.30;;
3278;SDS011;1651;50.940;6.888;2023-04-24T14:22:38;6.27;;;3.50;;
3278;SDS011;1651;50.940;6.888;2023-04-24T14:25:04;6.63;;;3.57;;
3278;SDS011;1651;50.940;6.888;2023-04-24T14:27:31;5.90;;;3.43;;
3278;SDS011;1651;50.940;6.888;2023-04-24T14:29:59;5.80;;;3.10;;
3278;SDS011;1651;50.940;6.888;2023-04-24T14:32:26;7.00;;;3.90;;
3278;SDS011;1651;50.940;6.888;2023-04-24T14:34:53;6.40;;;3.50;;
3278;SDS011;1651;50.940;6.888;2023-04-24T14:37:20;5.77;;;3.77;;
3278;SDS011;1651;50.940;6.888;2023-04-24T14:39:46;4.47;;;3.70;;
3278;SDS011;1651;50.940;6.888;2023-04-24T14:42:12;6.43;;;4.57;;
3278;SDS011;1651;50.940;6.888;2023-04-24T14:44:38;5.63;;;3.10;;
3278;SDS011;1651;50.940;6.888;2023-04-24T14:47:04;6.30;;;4.50;;
3278;SDS011;1651;50.940;6.888;2023-04-24T14:49:30;6.60;;;3.73;;
3278;SDS011;1651;50.940;6.888;2023-04-24T14:51:56;5.07;;;3.47;;
3278;SDS011;1651;50.940;6.888;2023-04-24T14:54:22;4.63;;;4.23;;
3278;SDS011;1651;50.940;6.888;2023-04-24T14:56:49;8.20;;;3.90;;
3278;SDS011;1651;50.940;6.888;2023-04-24T14:59:15;6.53;;;4.17;;
3278;SDS011;1651;50.940;6.888;2023-04-24T15:01:43;6.20;;;4.07;;
3278;SDS011;1651;50.940;6.888;2023-04-24T15:04:10;4.20;;;3.60;;
3278;SDS011;1651;50.940;6.888;2023-04-24T15:06:36;5.13;;;3.83;;
3278;SDS011;1651;50.940;6.888;2023-04-24T15:09:02;4.30;;;3.87;;
3278;SDS011;1651;50.940;6.888;2023-04-24T15:11:28;4.77;;;3.00;;
3278;SDS011;1651;50.940;6.888;2023-04-24T15:13:55;5.60;;;3.50;;
3278;SDS011;1651;50.940;6.888;2023-04-24T15:16:21;6.63;;;3.10;;
3278;SDS011;1651;50.940;6.888;2023-04-24T15:18:49;4.30;;;2.80;;
3278;SDS011;1651;50.940;6.888;2023-04-24T15:21:15;4.87;;;3.70;;
3278;SDS011;1651;50.940;6.888;2023-04-24T15:23:41;4.00;;;3.30;;